createdAt,value
2019-02-11T00:00:28.760Z,2.10
2019-02-11T00:02:57.180Z,2.10
2019-02-11T00:05:25.612Z,2.10
2019-02-11T00:07:54.012Z,2.10
2019-02-11T00:10:22.429Z,2.10
2019-02-11T00:12:50.848Z,2.10
2019-02-11T00:15:19.273Z,2.20
2019-02-11T00:17:47.863Z,2.20
2019-02-11T00:20:16.321Z,2.30
2019-02-11T00:22:44.744Z,2.30
2019-02-11T00:25:13.150Z,2.30
2019-02-11T00:27:41.578Z,2.30
2019-02-11T00:30:11.118Z,2.30
2019-02-11T00:32:39.538Z,2.30
2019-02-11T00:35:08.216Z,2.40
2019-02-11T00:37:36.629Z,2.50
2019-02-11T00:40:05.487Z,2.60
2019-02-11T00:42:33.910Z,2.50
2019-02-11T00:45:02.311Z,2.50
2019-02-11T00:47:30.726Z,2.60
2019-02-11T00:49:59.148Z,2.50
2019-02-11T00:52:27.576Z,2.50
2019-02-11T00:54:55.997Z,2.60
2019-02-11T00:57:24.400Z,2.60
2019-02-11T00:59:52.824Z,2.60
2019-02-11T01:02:21.232Z,2.60
2019-02-11T01:04:49.656Z,2.60
2019-02-11T01:07:18.072Z,2.60
2019-02-11T01:09:46.478Z,2.70
2019-02-11T01:12:14.880Z,2.70
2019-02-11T01:14:43.304Z,2.70
2019-02-11T01:17:11.715Z,2.70
2019-02-11T01:19:40.136Z,2.70
2019-02-11T01:22:08.542Z,2.70
2019-02-11T01:24:36.960Z,2.80
2019-02-11T01:27:05.721Z,2.80
2019-02-11T01:29:34.140Z,2.70
2019-02-11T01:32:02.553Z,2.70
2019-02-11T01:34:31.000Z,2.60
2019-02-11T01:36:59.418Z,2.50
2019-02-11T01:39:27.845Z,2.50
2019-02-11T01:41:56.258Z,2.50
2019-02-11T01:44:24.675Z,2.40
2019-02-11T01:46:53.088Z,2.40
2019-02-11T01:49:21.518Z,2.40
2019-02-11T01:51:49.942Z,2.30
2019-02-11T01:54:18.357Z,2.40
2019-02-11T01:56:46.839Z,2.40
2019-02-11T01:59:15.258Z,2.40
2019-02-11T02:01:43.664Z,2.30
2019-02-11T02:04:12.086Z,2.30
2019-02-11T02:06:40.498Z,2.30
2019-02-11T02:09:08.995Z,2.20
2019-02-11T02:11:37.401Z,2.20
2019-02-11T02:14:06.163Z,2.20
2019-02-11T02:16:34.620Z,2.20
2019-02-11T02:19:03.056Z,2.20
2019-02-11T02:21:31.553Z,2.20
2019-02-11T02:23:59.960Z,2.20
2019-02-11T02:26:28.385Z,2.20
2019-02-11T02:28:56.792Z,2.20
2019-02-11T02:31:26.109Z,2.20
2019-02-11T02:33:54.525Z,2.20
2019-02-11T02:36:22.958Z,2.20
2019-02-11T02:38:51.371Z,2.20
2019-02-11T02:41:19.793Z,2.20
2019-02-11T02:43:55.153Z,2.20
2019-02-11T02:46:18.345Z,2.20
2019-02-11T02:48:46.761Z,2.20
2019-02-11T02:51:15.182Z,2.30
2019-02-11T02:53:43.610Z,2.30
2019-02-11T02:56:12.012Z,2.30
2019-02-11T02:58:40.423Z,2.40
2019-02-11T03:01:09.142Z,2.40
2019-02-11T03:03:37.604Z,2.40
2019-02-11T03:06:06.023Z,2.50
2019-02-11T03:08:34.425Z,2.50
2019-02-11T03:11:02.853Z,2.50
2019-02-11T03:13:31.266Z,2.60
2019-02-11T03:15:59.691Z,2.60
2019-02-11T03:18:28.161Z,2.60
2019-02-11T03:20:56.584Z,2.60
2019-02-11T03:23:24.993Z,2.60
2019-02-11T03:25:53.416Z,2.60
2019-02-11T03:28:21.838Z,2.50
2019-02-11T03:30:50.256Z,2.50
2019-02-11T03:33:18.666Z,2.50
2019-02-11T03:35:47.080Z,2.50
2019-02-11T03:38:15.492Z,2.60
2019-02-11T03:40:43.914Z,2.50
2019-02-11T03:43:12.338Z,2.60
2019-02-11T03:45:40.742Z,2.60
2019-02-11T03:48:09.161Z,2.60
2019-02-11T03:50:38.046Z,2.60
2019-02-11T03:53:06.531Z,2.60
2019-02-11T03:55:34.964Z,2.60
2019-02-11T03:58:03.448Z,2.50
2019-02-11T04:00:31.864Z,2.50
2019-02-11T04:03:00.289Z,2.50
2019-02-11T04:05:28.693Z,2.50
2019-02-11T04:07:57.127Z,2.50
2019-02-11T04:10:25.530Z,2.50
2019-02-11T04:12:54.269Z,2.40
2019-02-11T04:15:22.683Z,2.50
2019-02-11T04:17:51.128Z,2.50
2019-02-11T04:20:19.554Z,2.40
2019-02-11T04:22:48.296Z,2.50
2019-02-11T04:25:16.710Z,2.50
2019-02-11T04:27:45.121Z,2.50
2019-02-11T04:30:13.604Z,2.60
2019-02-11T04:32:42.040Z,2.50
2019-02-11T04:35:10.437Z,2.60
2019-02-11T04:37:38.861Z,2.60
2019-02-11T04:40:10.326Z,2.60
2019-02-11T04:42:38.756Z,2.60
2019-02-11T04:45:09.502Z,2.60
2019-02-11T04:47:37.967Z,2.60
2019-02-11T04:50:08.844Z,2.50
2019-02-11T04:52:37.324Z,2.50
2019-02-11T04:55:07.982Z,2.60
2019-02-11T04:57:36.417Z,2.50
2019-02-11T05:00:10.474Z,2.50
2019-02-11T05:02:38.901Z,2.60
2019-02-11T05:05:09.049Z,2.60
2019-02-11T05:07:37.473Z,2.60
2019-02-11T05:10:11.597Z,2.60
2019-02-11T05:12:40.009Z,2.60
2019-02-11T05:15:10.361Z,2.60
2019-02-11T05:17:38.777Z,2.60
2019-02-11T05:20:11.370Z,2.60
2019-02-11T05:22:39.920Z,2.60
2019-02-11T05:25:08.786Z,2.60
2019-02-11T05:27:37.256Z,2.50
2019-02-11T05:30:11.837Z,2.50
2019-02-11T05:32:40.271Z,2.40
2019-02-11T05:35:09.147Z,2.50
2019-02-11T05:37:37.571Z,2.50
2019-02-11T05:40:11.870Z,2.50
2019-02-11T05:42:40.662Z,2.50
2019-02-11T05:45:09.763Z,2.50
2019-02-11T05:47:38.228Z,2.50
2019-02-11T05:50:11.297Z,2.50
2019-02-11T05:52:39.714Z,2.50
2019-02-11T05:55:08.673Z,2.50
2019-02-11T05:57:37.106Z,2.50
2019-02-11T06:00:09.446Z,2.50
2019-02-11T06:02:37.836Z,2.50
2019-02-11T06:05:08.041Z,2.50
2019-02-11T06:07:36.738Z,2.40
2019-02-11T06:10:08.061Z,2.40
2019-02-11T06:12:36.473Z,2.40
2019-02-11T06:15:08.321Z,2.50
2019-02-11T06:17:36.733Z,2.40
2019-02-11T06:20:08.201Z,2.50
2019-02-11T06:22:36.621Z,2.40
2019-02-11T06:25:06.575Z,2.40
2019-02-11T06:27:34.985Z,2.40
2019-02-11T06:30:04.753Z,2.40
2019-02-11T06:32:33.157Z,2.30
2019-02-11T06:35:01.901Z,2.30
2019-02-11T06:37:30.322Z,2.30
2019-02-11T06:39:58.760Z,2.30
2019-02-11T06:42:27.158Z,2.20
2019-02-11T06:44:55.578Z,2.20
2019-02-11T06:47:24.018Z,2.20
2019-02-11T06:49:52.412Z,2.20
2019-02-11T06:52:20.835Z,2.20
2019-02-11T06:54:49.637Z,2.20
2019-02-11T06:57:18.040Z,2.10
2019-02-11T06:59:46.452Z,2.10
2019-02-11T07:02:14.869Z,2.10
2019-02-11T07:04:43.297Z,2.10
2019-02-11T07:07:11.715Z,2.20
2019-02-11T07:09:40.141Z,2.20
2019-02-11T07:12:08.552Z,2.20
2019-02-11T07:14:36.978Z,2.20
2019-02-11T07:17:05.381Z,2.20
2019-02-11T07:19:33.796Z,2.30
2019-02-11T07:22:02.224Z,2.30
2019-02-11T07:24:30.645Z,2.30
2019-02-11T07:26:59.061Z,2.30
2019-02-11T07:29:27.770Z,2.30
2019-02-11T07:31:56.178Z,2.40
2019-02-11T07:34:24.930Z,2.40
2019-02-11T07:36:53.345Z,2.40
2019-02-11T07:39:22.106Z,2.40
2019-02-11T07:42:07.188Z,2.40
2019-02-11T07:44:36.980Z,2.40
2019-02-11T07:47:06.165Z,2.40
2019-02-11T07:49:34.863Z,2.40
2019-02-11T07:52:03.269Z,2.40
2019-02-11T07:54:32.046Z,2.40
2019-02-11T07:57:00.467Z,2.50
2019-02-11T07:59:28.872Z,2.40
2019-02-11T08:01:57.580Z,2.50
2019-02-11T08:04:25.998Z,2.50
2019-02-11T08:06:54.414Z,2.50
2019-02-11T08:09:22.833Z,2.50
2019-02-11T08:11:51.257Z,2.60
2019-02-11T08:14:19.984Z,2.60
2019-02-11T08:16:48.389Z,2.60
2019-02-11T08:19:16.818Z,2.60
2019-02-11T08:21:45.238Z,2.60
2019-02-11T08:24:13.653Z,2.60
2019-02-11T08:26:42.127Z,2.60
2019-02-11T08:29:10.541Z,2.70
2019-02-11T08:31:39.025Z,2.80
2019-02-11T08:34:07.441Z,2.80
2019-02-11T08:36:35.860Z,2.80
2019-02-11T08:39:05.739Z,2.80
2019-02-11T08:41:34.197Z,2.80
2019-02-11T08:44:03.091Z,2.80
2019-02-11T08:46:31.505Z,2.80
2019-02-11T08:48:59.924Z,2.80
2019-02-11T08:51:28.409Z,2.80
2019-02-11T08:53:56.825Z,2.90
2019-02-11T08:56:25.248Z,2.90
2019-02-11T08:58:53.664Z,3.00
2019-02-11T09:01:22.091Z,3.00
2019-02-11T09:03:50.781Z,3.00
2019-02-11T09:06:19.186Z,3.00
2019-02-11T09:08:47.601Z,3.10
2019-02-11T09:11:16.063Z,3.10
2019-02-11T09:13:44.492Z,3.10
2019-02-11T09:16:12.913Z,3.10
2019-02-11T09:18:41.344Z,3.10
2019-02-11T09:21:09.874Z,3.20
2019-02-11T09:23:38.280Z,3.30
2019-02-11T09:26:06.708Z,3.40
2019-02-11T09:28:35.127Z,3.40
2019-02-11T09:31:03.544Z,3.50
2019-02-11T09:33:32.009Z,3.50
2019-02-11T09:36:00.466Z,3.60
2019-02-11T09:38:28.949Z,3.60
2019-02-11T09:40:57.373Z,3.60
2019-02-11T09:43:25.786Z,3.70
2019-02-11T09:45:54.705Z,3.70
2019-02-11T09:48:23.109Z,3.70
2019-02-11T09:50:51.605Z,3.70
2019-02-11T09:53:20.013Z,3.70
2019-02-11T09:55:48.426Z,3.70
2019-02-11T09:58:16.928Z,3.70
2019-02-11T10:00:45.404Z,3.70
2019-02-11T10:03:13.829Z,3.80
2019-02-11T10:05:42.233Z,3.80
2019-02-11T10:08:10.658Z,3.80
2019-02-11T10:10:58.405Z,3.80
2019-02-11T10:13:27.139Z,3.90
2019-02-11T10:15:55.544Z,3.90
2019-02-11T10:18:24.030Z,4.00
2019-02-11T10:20:52.436Z,4.00
2019-02-11T10:23:20.854Z,4.00
2019-02-11T10:25:49.268Z,4.10
2019-02-11T10:30:46.045Z,3.90
2019-02-11T10:33:14.534Z,3.80
2019-02-11T10:35:43.009Z,3.80
2019-02-11T10:38:11.428Z,3.70
2019-02-11T10:40:39.845Z,3.70
2019-02-11T10:43:08.269Z,3.70
2019-02-11T10:50:33.801Z,3.80
2019-02-11T10:53:02.216Z,3.80
2019-02-11T10:57:58.725Z,4.10
2019-02-11T11:00:27.462Z,4.30
2019-02-11T11:02:55.876Z,4.40
2019-02-11T11:05:24.356Z,4.30
2019-02-11T11:07:52.768Z,4.40
2019-02-11T11:10:27.373Z,4.40
2019-02-11T11:12:56.137Z,4.40
2019-02-11T11:15:24.701Z,4.40
2019-02-11T11:25:18.325Z,4.10
2019-02-11T11:30:17.960Z,4.30
2019-02-11T11:32:47.111Z,4.30
2019-02-11T11:37:45.137Z,4.40
2019-02-11T11:40:21.361Z,4.30
2019-02-11T11:42:50.077Z,4.40
2019-02-11T11:45:19.883Z,4.40
2019-02-11T11:47:48.367Z,4.30
2019-02-11T11:50:17.534Z,4.20
2019-02-11T11:52:46.025Z,4.10
2019-02-11T11:55:16.856Z,4.00
2019-02-11T12:00:19.886Z,4.10
2019-02-11T12:03:00.667Z,4.00
2019-02-11T12:15:13.976Z,4.70
2019-02-11T12:17:43.049Z,4.80
2019-02-11T12:20:12.968Z,5.00
2019-02-11T12:27:39.009Z,5.00
2019-02-11T12:30:19.261Z,4.90
2019-02-11T12:32:47.674Z,4.70
2019-02-11T12:35:16.092Z,4.60
2019-02-11T12:40:12.772Z,4.50
2019-02-11T12:42:41.259Z,4.50
2019-02-11T12:45:12.507Z,4.60
2019-02-11T12:50:14.513Z,4.70
2019-02-11T12:52:42.934Z,4.80
2019-02-11T12:55:13.288Z,4.80
2019-02-11T12:57:41.701Z,4.70
2019-02-11T13:00:18.466Z,4.40
2019-02-11T13:02:47.520Z,4.50
2019-02-11T13:05:16.085Z,4.70
2019-02-11T13:07:44.605Z,4.80
2019-02-11T13:10:18.703Z,4.90
2019-02-11T13:12:47.222Z,4.90
2019-02-11T13:15:41.896Z,4.90
2019-02-11T13:17:46.912Z,5.00
2019-02-11T13:20:16.709Z,5.00
2019-02-11T13:22:45.258Z,5.00
2019-02-11T13:25:15.228Z,4.90
2019-02-11T13:27:43.717Z,5.00
2019-02-11T13:30:20.614Z,7.10
2019-02-11T13:32:49.143Z,5.10
2019-02-11T13:35:17.664Z,5.10
2019-02-11T13:37:46.247Z,5.20
2019-02-11T13:40:14.850Z,5.20
2019-02-11T13:42:43.468Z,5.10
2019-02-11T13:45:15.055Z,5.20
2019-02-11T13:47:53.163Z,5.30
2019-02-11T13:50:27.817Z,5.40
2019-02-11T13:52:56.584Z,5.40
2019-02-11T13:55:30.122Z,5.50
2019-02-11T13:57:55.605Z,5.50
2019-02-11T14:00:29.787Z,5.30
2019-02-11T14:02:59.638Z,5.30
2019-02-11T14:05:29.413Z,5.20
2019-02-11T14:07:59.900Z,5.20
2019-02-11T14:10:28.754Z,5.00
2019-02-11T14:12:57.251Z,5.00
2019-02-11T14:15:26.097Z,4.90
2019-02-11T14:18:10.496Z,4.90
2019-02-11T14:20:26.678Z,5.00
2019-02-11T14:22:55.193Z,5.00
2019-02-11T14:25:41.171Z,5.00
2019-02-11T14:27:53.838Z,4.80
2019-02-11T14:30:22.818Z,4.80
2019-02-11T14:32:51.271Z,4.80
2019-02-11T14:35:20.420Z,4.70
2019-02-11T14:37:48.900Z,4.80
2019-02-11T14:40:17.322Z,4.80
2019-02-11T14:42:45.890Z,4.80
2019-02-11T14:45:19.079Z,4.80
2019-02-11T14:47:47.563Z,4.80
2019-02-11T14:50:15.987Z,4.80
2019-02-11T14:52:44.411Z,4.90
2019-02-11T14:55:13.184Z,4.70
2019-02-11T14:57:41.629Z,4.60
2019-02-11T15:00:14.385Z,4.60
2019-02-11T15:02:42.830Z,4.50
2019-02-11T15:05:23.978Z,4.50
2019-02-11T15:07:52.401Z,4.40
2019-02-11T15:10:20.809Z,4.50
2019-02-11T15:12:49.238Z,4.50
2019-02-11T15:15:17.648Z,4.50
2019-02-11T15:17:46.842Z,4.50
2019-02-11T15:20:17.065Z,4.30
2019-02-11T15:22:45.484Z,4.30
2019-02-11T15:25:18.603Z,4.20
2019-02-11T15:27:47.021Z,4.20
2019-02-11T15:30:19.884Z,4.10
2019-02-11T15:32:48.329Z,4.10
2019-02-11T15:35:16.787Z,4.10
2019-02-11T15:37:45.222Z,4.00
2019-02-11T15:40:16.336Z,4.00
2019-02-11T15:42:44.763Z,3.90
2019-02-11T15:45:14.617Z,3.80
2019-02-11T15:47:43.104Z,3.80
2019-02-11T15:50:13.923Z,3.80
2019-02-11T15:52:42.349Z,3.80
2019-02-11T15:55:15.408Z,3.90
2019-02-11T15:57:43.834Z,3.80
2019-02-11T16:00:17.948Z,3.80
2019-02-11T16:02:46.503Z,3.80
2019-02-11T16:05:16.605Z,3.80
2019-02-11T16:07:45.132Z,3.80
2019-02-11T16:10:19.105Z,3.80
2019-02-11T16:12:47.516Z,3.80
2019-02-11T16:15:15.924Z,3.80
2019-02-11T16:17:44.352Z,3.70
2019-02-11T16:20:14.912Z,3.70
2019-02-11T16:22:43.393Z,3.70
2019-02-11T16:25:15.312Z,3.60
2019-02-11T16:27:43.754Z,3.50
2019-02-11T16:30:17.954Z,3.50
2019-02-11T16:35:26.109Z,3.30
2019-02-11T16:37:57.794Z,3.20
2019-02-11T16:40:29.137Z,3.10
2019-02-11T16:42:57.560Z,3.10
2019-02-11T16:45:25.974Z,3.00
2019-02-11T16:47:54.401Z,2.90
2019-02-11T16:50:22.879Z,2.90
2019-02-11T16:52:51.297Z,2.90
2019-02-11T16:55:19.711Z,2.90
2019-02-11T16:57:48.132Z,2.90
2019-02-11T17:00:18.869Z,2.90
2019-02-11T17:02:47.298Z,3.00
2019-02-11T17:05:15.704Z,2.90
2019-02-11T17:07:44.581Z,3.00
2019-02-11T17:10:14.224Z,3.00
2019-02-11T17:12:42.710Z,3.00
2019-02-11T17:15:17.251Z,3.00
2019-02-11T17:17:45.677Z,3.00
2019-02-11T17:20:15.521Z,3.00
2019-02-11T17:22:44.289Z,3.00
2019-02-11T17:25:13.858Z,3.00
2019-02-11T17:27:42.265Z,3.00
2019-02-11T17:30:13.585Z,3.00
2019-02-11T17:32:42.007Z,3.00
2019-02-11T17:35:10.689Z,3.00
2019-02-11T17:37:51.758Z,3.00
2019-02-11T17:40:20.161Z,3.00
2019-02-11T17:42:48.585Z,2.90
2019-02-11T17:45:22.589Z,2.90
2019-02-11T17:47:51.012Z,3.00
2019-02-11T17:50:19.416Z,3.00
2019-02-11T17:52:48.493Z,3.00
2019-02-11T17:55:16.902Z,2.90
2019-02-11T17:57:45.325Z,2.90
2019-02-11T18:00:18.453Z,2.90
2019-02-11T18:02:46.868Z,2.90
2019-02-11T18:05:15.282Z,3.00
2019-02-11T18:07:43.697Z,2.90
2019-02-11T18:10:12.104Z,3.00
2019-02-11T18:12:40.533Z,2.90
2019-02-11T18:15:10.586Z,2.90
2019-02-11T18:17:39.327Z,2.90
2019-02-11T18:20:10.572Z,3.00
2019-02-11T18:22:39.251Z,2.90
2019-02-11T18:25:09.102Z,3.00
2019-02-11T18:27:37.504Z,3.00
2019-02-11T18:30:09.800Z,2.90
2019-02-11T18:32:38.234Z,3.00
2019-02-11T18:35:09.759Z,2.90
2019-02-11T18:37:38.172Z,3.00
2019-02-11T18:40:11.843Z,2.90
2019-02-11T18:42:40.015Z,3.00
2019-02-11T18:45:11.437Z,3.00
2019-02-11T18:47:39.849Z,2.90
2019-02-11T18:50:10.714Z,2.90
2019-02-11T18:52:39.158Z,2.90
2019-02-11T19:00:08.504Z,2.90
2019-02-11T19:05:05.857Z,2.90
2019-02-11T19:07:34.273Z,2.90
2019-02-11T19:12:30.781Z,2.90
2019-02-11T19:32:15.873Z,3.10
2019-02-11T19:34:44.343Z,3.10
2019-02-11T19:39:41.057Z,3.10
2019-02-11T19:42:09.469Z,3.10
2019-02-11T19:44:37.914Z,3.00
2019-02-11T19:47:06.308Z,3.00
2019-02-11T19:49:35.055Z,3.00
2019-02-11T19:52:03.458Z,3.00
2019-02-11T19:54:31.881Z,3.00
2019-02-11T19:59:28.388Z,3.00
2019-02-11T20:04:24.895Z,3.00
2019-02-11T20:06:53.349Z,2.90
2019-02-11T20:09:21.805Z,2.90
2019-02-11T20:11:50.468Z,2.90
2019-02-11T20:19:16.740Z,2.90
2019-02-11T20:29:09.495Z,3.20
2019-02-11T20:31:37.909Z,3.10
2019-02-11T20:36:34.420Z,3.10
2019-02-11T20:39:04.594Z,3.10
2019-02-11T20:41:33.021Z,3.10
2019-02-11T20:46:29.531Z,3.20
2019-02-11T20:51:26.053Z,3.10
2019-02-11T20:58:50.643Z,2.00
2019-02-11T21:01:19.069Z,1.70
2019-02-11T21:06:15.586Z,1.40
2019-02-11T21:08:44.008Z,1.30
2019-02-11T21:13:41.207Z,1.20
2019-02-11T21:16:09.621Z,1.20
2019-02-11T21:23:34.753Z,1.40
2019-02-11T21:26:03.174Z,1.30
2019-02-11T21:30:59.689Z,1.30
2019-02-11T21:33:28.106Z,1.20
2019-02-11T21:35:56.522Z,1.20
2019-02-11T21:40:53.029Z,1.20
2019-02-11T21:45:49.553Z,1.10
2019-02-11T21:50:46.340Z,1.00
2019-02-11T21:53:14.765Z,0.90
2019-02-11T21:55:43.175Z,0.90
2019-02-11T21:58:11.596Z,0.80
2019-02-11T22:00:40.019Z,0.80
2019-02-11T22:03:08.454Z,0.80
2019-02-11T22:05:36.855Z,0.70
2019-02-11T22:08:05.281Z,0.70
2019-02-11T22:10:33.699Z,0.70
2019-02-11T22:13:02.481Z,0.70
2019-02-11T22:20:34.378Z,0.70
2019-02-11T22:22:57.215Z,0.70
2019-02-11T22:30:25.477Z,0.60
2019-02-11T22:32:53.901Z,3.00
2019-02-11T22:35:22.337Z,0.50
2019-02-11T22:37:51.312Z,0.50
2019-02-11T22:52:42.354Z,0.50
2019-02-11T22:55:12.633Z,0.50
2019-02-11T22:57:41.066Z,0.40
2019-02-11T23:00:47.489Z,0.30
2019-02-11T23:03:16.652Z,0.20
2019-02-11T23:05:45.084Z,0.20
2019-02-11T23:08:13.568Z,0.10
2019-02-11T23:10:42.081Z,0.10
2019-02-11T23:30:27.687Z,0.10
2019-02-11T23:32:56.110Z,0.20
2019-02-11T23:37:52.623Z,0.20
2019-02-11T23:40:21.049Z,0.20
2019-02-11T23:42:49.473Z,0.30
2019-02-11T23:45:17.888Z,0.40
2019-02-11T23:47:46.318Z,0.40
2019-02-11T23:50:14.728Z,0.50
2019-02-11T23:52:43.153Z,0.60
